Terminal Aerodrome Forecast
Issued by NWS

Home | Current Version | Previous Version | Text Only | Print | Product List | Glossary On
Versions: 1 2 3 4 5 6 7 8 9 10 11 12 13 14 15 16 17 18 19 20 21 22 23 24 25 26 27 28 29 30
752
FTUS43 KGRR 151336 AAA
TAFMKG
TAF AMD
KMKG 151336Z 1514/1612 28012G21KT 1/4SM SN FZFG BKN008
      TEMPO 1514/1515 1SM -SN OVC015
     FM151500 28013G23KT 2SM -SN BR OVC025
     FM151900 28013G23KT 4SM -SN OVC030
     FM160100 27008KT 6SM -SN BKN030
     FM161100 09004KT 5SM -SN BR OVC025=

USA.gov is the U.S. government's official web portal to all federal, state and local government web resources and services.